createdAt,value
2023-01-21T00:01:11.376Z,102568.41
2023-01-21T00:03:39.658Z,102571.19
2023-01-21T00:06:09.363Z,102565.94
2023-01-21T00:08:37.216Z,102574.78
2023-01-21T00:11:08.823Z,102571.34
2023-01-21T00:13:37.431Z,102571.44
2023-01-21T00:16:06.355Z,102575.03
2023-01-21T00:18:34.961Z,102573.38
2023-01-21T00:21:03.351Z,102577.81
2023-01-21T00:23:32.664Z,102584.94
2023-01-21T00:26:00.890Z,102587.59
2023-01-21T00:28:33.280Z,102584.97
2023-01-21T00:31:03.024Z,102585.91
2023-01-21T00:33:32.043Z,102590.31
2023-01-21T00:36:01.736Z,102585.91
2023-01-21T00:38:30.662Z,102596.50
2023-01-21T00:41:04.784Z,102613.31
2023-01-21T00:43:33.356Z,102620.38
2023-01-21T00:46:01.395Z,102617.66
2023-01-21T00:48:29.641Z,102629.09
2023-01-21T00:51:01.075Z,102634.41
2023-01-21T00:53:29.545Z,102633.50
2023-01-21T00:56:00.260Z,102637.75
2023-01-21T00:58:33.466Z,102637.69
2023-01-21T01:01:02.799Z,102641.13
2023-01-21T01:03:30.863Z,102646.41
2023-01-21T01:06:04.142Z,102651.66
2023-01-21T01:08:32.074Z,102651.66
2023-01-21T01:11:00.189Z,102657.72
2023-01-21T01:13:29.858Z,102664.81
2023-01-21T01:16:02.657Z,102670.97
2023-01-21T01:18:32.692Z,102663.88
2023-01-21T01:21:01.569Z,102664.84
2023-01-21T01:23:29.436Z,102666.59
2023-01-21T01:25:59.595Z,102667.56
2023-01-21T01:28:28.259Z,102667.56
2023-01-21T01:30:56.989Z,102668.47
2023-01-21T01:33:26.773Z,102677.34
2023-01-21T01:35:54.931Z,102682.59
2023-01-21T01:38:24.063Z,102683.50
2023-01-21T01:40:54.072Z,102687.88
2023-01-21T01:43:24.240Z,102686.03
2023-01-21T01:45:53.786Z,102701.88
2023-01-21T01:48:29.022Z,102704.53
2023-01-21T01:51:01.191Z,102708.00
2023-01-21T01:53:31.322Z,102712.31
2023-01-21T01:55:59.985Z,102714.13
2023-01-21T01:58:30.156Z,102715.00
2023-01-21T02:00:58.213Z,102718.47
2023-01-21T02:03:46.218Z,102724.59
2023-01-21T02:06:15.480Z,102728.09
2023-01-21T02:08:44.251Z,102722.78
2023-01-21T02:11:13.152Z,102727.19
2023-01-21T02:13:43.994Z,102731.63
2023-01-21T02:16:41.890Z,102728.06
2023-01-21T02:19:41.562Z,102730.75
2023-01-21T02:22:17.427Z,102729.91
2023-01-21T02:25:26.950Z,102742.22
2023-01-21T02:28:13.648Z,102739.53
2023-01-21T02:30:50.114Z,102739.53
2023-01-21T02:33:56.266Z,102737.75
2023-01-21T02:36:47.653Z,102731.59
2023-01-21T02:39:22.990Z,102743.97
2023-01-21T02:42:07.377Z,102741.31
2023-01-21T02:44:41.371Z,102745.75
2023-01-21T02:47:18.867Z,102735.25
2023-01-21T02:49:51.943Z,102745.78
2023-01-21T02:52:23.286Z,102750.09
2023-01-21T02:54:54.166Z,102759.81
2023-01-21T02:57:39.204Z,102757.19
2023-01-21T03:00:12.613Z,102758.91
2023-01-21T03:03:11.735Z,102762.47
2023-01-21T03:05:57.156Z,102765.13
2023-01-21T03:08:31.794Z,102766.97
2023-01-21T03:11:10.465Z,102773.19
2023-01-21T03:14:02.447Z,102768.72
2023-01-21T03:16:52.742Z,102766.91
2023-01-21T03:19:24.519Z,102768.69
2023-01-21T03:21:54.853Z,102773.09
2023-01-21T03:24:24.512Z,102776.59
2023-01-21T03:26:55.570Z,102771.28
2023-01-21T03:29:27.768Z,102773.88
2023-01-21T03:31:59.858Z,102774.78
2023-01-21T03:34:30.875Z,102777.38
2023-01-21T03:37:03.518Z,102787.09
2023-01-21T03:39:41.776Z,102787.09
2023-01-21T03:42:10.601Z,102785.28
2023-01-21T03:44:39.114Z,102793.38
2023-01-21T03:47:18.153Z,102802.25
2023-01-21T03:49:52.508Z,102802.31
2023-01-21T03:52:22.991Z,102792.66
2023-01-21T03:54:52.715Z,102793.53
2023-01-21T03:57:20.721Z,102804.06
2023-01-21T03:59:48.571Z,102800.50
2023-01-21T04:02:20.480Z,102799.63
2023-01-21T04:04:49.008Z,102798.75
2023-01-21T04:07:17.585Z,102811.09
2023-01-21T04:09:45.709Z,102804.06
2023-01-21T04:12:15.010Z,102807.53
2023-01-21T04:14:42.846Z,102811.00
2023-01-21T04:17:10.974Z,102806.66
2023-01-21T04:19:38.934Z,102813.78
2023-01-21T04:22:06.790Z,102813.81
2023-01-21T04:24:34.891Z,102820.00
2023-01-21T04:27:02.812Z,102826.94
2023-01-21T04:29:32.028Z,102823.34
2023-01-21T04:31:59.881Z,102822.47
2023-01-21T04:34:27.768Z,102822.44
2023-01-21T04:36:55.606Z,102824.19
2023-01-21T04:39:23.572Z,102831.28
2023-01-21T04:41:51.596Z,102823.34
2023-01-21T04:44:19.399Z,102827.72
2023-01-21T04:46:48.641Z,102830.38
2023-01-21T04:49:16.616Z,102838.31
2023-01-21T04:51:44.450Z,102833.03
2023-01-21T04:54:12.584Z,102841.84
2023-01-21T04:56:40.493Z,102833.94
2023-01-21T04:59:08.368Z,102833.94
2023-01-21T05:01:36.277Z,102850.66
2023-01-21T05:04:06.025Z,102847.19
2023-01-21T05:06:33.857Z,102856.00
2023-01-21T05:09:01.768Z,102848.13
2023-01-21T05:11:29.781Z,102856.94
2023-01-21T05:13:57.588Z,102861.28
2023-01-21T05:16:25.477Z,102863.03
2023-01-21T05:18:53.455Z,102864.81
2023-01-21T05:21:22.712Z,102876.28
2023-01-21T05:23:50.555Z,102880.69
2023-01-21T05:26:19.548Z,102874.56
2023-01-21T05:28:47.430Z,102893.94
2023-01-21T05:31:15.350Z,102894.84
2023-01-21T05:33:44.079Z,102899.25
2023-01-21T05:36:12.062Z,102901.84
2023-01-21T05:38:41.489Z,102900.09
2023-01-21T05:41:09.666Z,102904.50
2023-01-21T05:43:37.513Z,102913.34
2023-01-21T05:46:05.375Z,102914.19
2023-01-21T05:48:33.354Z,102915.06
2023-01-21T05:51:01.286Z,102922.13
2023-01-21T05:53:29.339Z,102922.16
2023-01-21T05:55:59.112Z,102922.16
2023-01-21T05:58:27.674Z,102929.19
2023-01-21T06:00:57.450Z,102935.38
2023-01-21T06:03:26.203Z,102932.72
2023-01-21T06:05:54.239Z,102930.09
2023-01-21T06:08:23.326Z,102944.16
2023-01-21T06:10:51.133Z,102944.16
2023-01-21T06:13:20.341Z,102945.03
2023-01-21T06:15:48.238Z,102958.25
2023-01-21T06:18:16.088Z,102961.75
2023-01-21T06:20:43.932Z,102959.13
2023-01-21T06:23:12.210Z,102969.66
2023-01-21T06:25:40.856Z,102966.16
2023-01-21T06:28:09.952Z,102973.19
2023-01-21T06:30:39.693Z,102974.06
2023-01-21T06:33:07.541Z,102975.81
2023-01-21T06:35:35.920Z,102989.06
2023-01-21T06:38:04.167Z,102983.75
2023-01-21T06:40:32.110Z,102990.81
2023-01-21T06:42:59.944Z,102991.66
2023-01-21T06:45:28.417Z,102985.50
2023-01-21T06:47:57.778Z,102995.19
2023-01-21T06:50:25.631Z,102993.44
2023-01-21T06:52:53.648Z,102991.69
2023-01-21T06:55:21.471Z,102993.41
2023-01-21T06:57:49.252Z,102997.84
2023-01-21T07:00:18.658Z,103001.38
2023-01-21T07:02:46.831Z,102997.84
2023-01-21T07:05:16.608Z,103014.56
2023-01-21T07:07:44.700Z,103006.63
2023-01-21T07:10:12.928Z,103009.31
2023-01-21T07:12:40.773Z,103022.50
2023-01-21T07:15:09.983Z,103018.09
2023-01-21T07:17:37.859Z,103028.66
2023-01-21T07:20:06.802Z,103018.06
2023-01-21T07:22:36.375Z,103033.06
2023-01-21T07:25:04.243Z,103047.16
2023-01-21T07:27:32.178Z,103035.72
2023-01-21T07:30:00.049Z,103047.16
2023-01-21T07:32:27.891Z,103057.72
2023-01-21T07:34:55.800Z,103055.94
2023-01-21T07:37:23.672Z,103060.34
2023-01-21T07:39:54.611Z,103061.25
2023-01-21T07:42:22.740Z,103062.97
2023-01-21T07:44:50.677Z,103058.59
2023-01-21T07:47:18.526Z,103064.78
2023-01-21T07:49:46.367Z,103070.91
2023-01-21T07:52:14.257Z,103073.53
2023-01-21T07:54:42.143Z,103075.31
2023-01-21T07:57:11.354Z,103075.28
2023-01-21T07:59:39.397Z,103077.94
2023-01-21T08:02:07.564Z,103077.97
2023-01-21T08:04:35.482Z,103081.47
2023-01-21T08:07:11.924Z,103069.16
2023-01-21T08:09:41.028Z,103079.72
2023-01-21T08:12:09.952Z,103085.00
2023-01-21T08:14:39.686Z,103087.66
2023-01-21T08:17:07.589Z,103085.88
2023-01-21T08:19:35.476Z,103088.53
2023-01-21T08:22:03.568Z,103092.94
2023-01-21T08:24:31.426Z,103095.59
2023-01-21T08:27:00.108Z,103087.66
2023-01-21T08:29:28.439Z,103095.59
2023-01-21T08:31:59.283Z,103099.97
2023-01-21T08:34:27.685Z,103104.38
2023-01-21T08:36:55.531Z,103108.81
2023-01-21T08:39:23.356Z,103107.03
2023-01-21T08:41:51.289Z,103108.78
2023-01-21T08:44:19.172Z,103110.56
2023-01-21T08:46:46.996Z,103112.34
2023-01-21T08:49:16.286Z,103116.72
2023-01-21T08:51:44.289Z,103120.25
2023-01-21T08:54:12.112Z,103128.19
2023-01-21T08:56:40.126Z,103129.94
2023-01-21T08:59:08.123Z,103136.97
2023-01-21T09:01:36.690Z,103140.50
2023-01-21T09:04:04.766Z,103151.97
2023-01-21T09:06:34.852Z,103153.72
2023-01-21T09:09:02.712Z,103155.47
2023-01-21T09:11:30.911Z,103164.31
2023-01-21T09:14:03.375Z,103169.56
2023-01-21T09:16:36.429Z,103159.00
2023-01-21T09:19:04.704Z,103164.31
2023-01-21T09:21:35.821Z,103166.97
2023-01-21T09:24:03.904Z,103176.66
2023-01-21T09:26:31.799Z,103182.81
2023-01-21T09:29:02.080Z,103180.16
2023-01-21T09:31:31.734Z,103185.47
2023-01-21T09:34:02.233Z,103191.59
2023-01-21T09:36:32.764Z,103189.84
2023-01-21T09:39:02.695Z,103185.44
2023-01-21T09:41:36.431Z,103192.50
2023-01-21T09:44:15.769Z,103200.44
2023-01-21T09:46:49.930Z,103203.09
2023-01-21T09:49:23.844Z,103202.19
2023-01-21T09:51:59.606Z,103203.97
2023-01-21T09:54:32.162Z,103207.50
2023-01-21T09:57:38.690Z,103215.41
2023-01-21T10:00:30.248Z,103210.13
2023-01-21T10:03:04.538Z,103218.03
2023-01-21T10:06:04.042Z,103219.81
2023-01-21T10:08:41.271Z,103227.75
2023-01-21T10:11:23.551Z,103232.16
2023-01-21T10:14:21.641Z,103224.22
2023-01-21T10:17:03.023Z,103224.25
2023-01-21T10:19:37.626Z,103226.88
2023-01-21T10:22:10.818Z,103225.13
2023-01-21T10:24:45.352Z,103226.00
2023-01-21T10:27:17.800Z,103237.47
2023-01-21T10:29:47.513Z,103218.94
2023-01-21T10:32:18.814Z,103214.56
2023-01-21T10:34:51.854Z,103218.94
2023-01-21T10:37:26.939Z,103218.09
2023-01-21T10:40:04.492Z,103218.94
2023-01-21T10:42:55.059Z,103213.66
2023-01-21T10:45:37.170Z,103211.03
2023-01-21T10:48:12.370Z,103201.28
2023-01-21T10:50:49.440Z,103201.22
2023-01-21T10:53:24.824Z,103203.88
2023-01-21T10:56:07.597Z,103198.59
2023-01-21T10:58:42.337Z,103197.66
2023-01-21T11:01:19.335Z,103206.44
2023-01-21T11:03:49.342Z,103194.88
2023-01-21T11:06:20.059Z,103194.84
2023-01-21T11:08:52.466Z,103189.53
2023-01-21T11:11:27.822Z,103189.59
2023-01-21T11:13:57.708Z,103186.91
2023-01-21T11:16:46.910Z,103183.38
2023-01-21T11:19:16.944Z,103180.75
2023-01-21T11:22:04.081Z,103180.75
2023-01-21T11:24:33.584Z,103190.41
2023-01-21T11:27:02.326Z,103186.78
2023-01-21T11:29:42.139Z,103193.75
2023-01-21T11:32:19.012Z,103193.81
2023-01-21T11:34:48.915Z,103188.56
2023-01-21T11:37:25.654Z,103185.03
2023-01-21T11:39:56.976Z,103179.75
2023-01-21T11:42:25.267Z,103180.63
2023-01-21T11:44:58.067Z,103173.63
2023-01-21T11:47:30.854Z,103174.47
2023-01-21T11:50:13.920Z,103167.47
2023-01-21T11:52:41.802Z,103173.50
2023-01-21T11:55:22.111Z,103165.53
2023-01-21T11:57:53.453Z,103168.16
2023-01-21T12:00:25.646Z,103163.75
2023-01-21T12:02:58.202Z,103160.19
2023-01-21T12:05:32.600Z,103154.00
2023-01-21T12:08:01.516Z,103155.03
2023-01-21T12:10:32.996Z,103146.19
2023-01-21T12:13:25.408Z,103147.97
2023-01-21T12:16:28.880Z,103147.03
2023-01-21T12:19:16.541Z,103150.66
2023-01-21T12:21:57.439Z,103151.50
2023-01-21T12:24:38.854Z,103136.41
2023-01-21T12:27:22.234Z,103137.34
2023-01-21T12:30:02.110Z,103143.72
2023-01-21T12:32:35.005Z,103135.78
2023-01-21T12:35:10.522Z,103146.31
2023-01-21T12:37:46.958Z,103134.84
2023-01-21T12:40:19.177Z,103128.69
2023-01-21T12:42:53.007Z,103123.28
2023-01-21T12:45:25.297Z,103136.50
2023-01-21T12:47:57.567Z,103128.47
2023-01-21T12:50:32.196Z,103134.69
2023-01-21T12:53:17.652Z,103139.22
2023-01-21T12:55:59.887Z,103138.50
2023-01-21T12:58:32.251Z,103137.66
2023-01-21T13:01:05.706Z,103143.88
2023-01-21T13:03:43.147Z,103137.69
2023-01-21T13:06:19.029Z,103143.88
2023-01-21T13:08:56.646Z,103145.63
2023-01-21T13:11:28.637Z,103149.16
2023-01-21T13:14:04.567Z,103143.06
2023-01-21T13:16:34.201Z,103142.19
2023-01-21T13:19:04.306Z,103139.50
2023-01-21T13:21:43.270Z,103146.56
2023-01-21T13:24:17.650Z,103145.69
2023-01-21T13:26:55.038Z,103155.38
2023-01-21T13:29:40.211Z,103156.31
2023-01-21T13:32:32.429Z,103150.16
2023-01-21T13:35:14.022Z,103157.19
2023-01-21T13:37:49.463Z,103154.47
2023-01-21T13:40:26.902Z,103148.34
2023-01-21T13:43:05.871Z,103158.00
2023-01-21T13:45:46.640Z,103155.34
2023-01-21T13:48:29.473Z,103158.88
2023-01-21T13:51:12.426Z,103163.25
2023-01-21T13:53:56.732Z,103157.03
2023-01-21T13:56:39.975Z,103164.13
2023-01-21T13:59:13.772Z,103160.59
2023-01-21T14:01:46.814Z,103158.84
2023-01-21T14:04:21.036Z,103165.00
2023-01-21T14:06:54.745Z,103171.13
2023-01-21T14:09:28.806Z,103171.19
2023-01-21T14:12:03.011Z,103177.41
2023-01-21T14:15:06.315Z,103174.69
2023-01-21T14:18:00.333Z,103172.00
2023-01-21T14:20:53.134Z,103163.16
2023-01-21T14:23:37.222Z,103169.34
2023-01-21T14:26:32.797Z,103172.88
2023-01-21T14:29:10.088Z,103165.88
2023-01-21T14:31:43.374Z,103184.41
2023-01-21T14:34:19.175Z,103181.75
2023-01-21T14:36:56.115Z,103180.84
2023-01-21T14:39:55.560Z,103181.72
2023-01-21T14:42:41.845Z,103172.84
2023-01-21T14:45:10.819Z,103178.19
2023-01-21T14:47:44.719Z,103179.03
2023-01-21T14:50:35.226Z,103185.28
2023-01-21T14:53:12.041Z,103194.97
2023-01-21T14:55:42.473Z,103194.06
2023-01-21T14:58:23.959Z,103195.00
2023-01-21T15:00:53.811Z,103198.56
2023-01-21T15:03:27.629Z,103206.50
2023-01-21T15:05:59.516Z,103203.91
2023-01-21T15:08:33.398Z,103197.72
2023-01-21T15:11:04.583Z,103200.41
2023-01-21T15:13:38.799Z,103206.59
2023-01-21T15:16:15.349Z,103215.41
2023-01-21T15:18:48.616Z,103210.16
2023-01-21T15:21:36.276Z,103207.47
2023-01-21T15:24:26.327Z,103215.41
2023-01-21T15:27:15.051Z,103211.88
2023-01-21T15:29:45.707Z,103218.06
2023-01-21T15:32:22.821Z,103217.16
2023-01-21T15:34:54.234Z,103223.31
2023-01-21T15:37:24.684Z,103224.19
2023-01-21T15:39:57.687Z,103222.44
2023-01-21T15:42:36.858Z,103231.25
2023-01-21T15:45:23.795Z,103222.44
2023-01-21T15:48:41.585Z,103230.34
2023-01-21T15:51:24.037Z,103230.38
2023-01-21T15:54:21.664Z,103236.53
2023-01-21T15:57:01.120Z,103225.97
2023-01-21T15:59:45.901Z,103225.97
2023-01-21T16:02:23.572Z,103225.94
2023-01-21T16:05:05.250Z,103229.44
2023-01-21T16:07:47.333Z,103242.63
2023-01-21T16:10:23.947Z,103230.28
2023-01-21T16:13:07.022Z,103232.91
2023-01-21T16:15:45.551Z,103236.41
2023-01-21T16:18:28.375Z,103241.72
2023-01-21T16:20:58.949Z,103243.50
2023-01-21T16:23:32.661Z,103240.81
2023-01-21T16:26:00.786Z,103247.84
2023-01-21T16:28:41.563Z,103254.84
2023-01-21T16:31:09.582Z,103263.63
2023-01-21T16:33:39.082Z,103253.84
2023-01-21T16:36:09.316Z,103255.59
2023-01-21T16:38:38.882Z,103249.41
2023-01-21T16:41:25.890Z,103246.72
2023-01-21T16:43:56.785Z,103249.31
2023-01-21T16:46:28.349Z,103237.00
2023-01-21T16:48:59.481Z,103237.91
2023-01-21T16:51:30.879Z,103237.91
2023-01-21T16:54:25.041Z,103237.13
2023-01-21T16:56:55.816Z,103240.56
2023-01-21T16:59:27.725Z,103239.72
2023-01-21T17:01:57.009Z,103234.47
2023-01-21T17:04:26.375Z,103229.22
2023-01-21T17:06:54.840Z,103235.38
2023-01-21T17:09:33.437Z,103232.72
2023-01-21T17:12:07.460Z,103237.09
2023-01-21T17:14:36.577Z,103240.59
2023-01-21T17:17:09.056Z,103247.56
2023-01-21T17:19:43.691Z,103247.63
2023-01-21T17:22:15.519Z,103248.41
2023-01-21T17:25:00.399Z,103250.22
2023-01-21T17:27:29.826Z,103250.25
2023-01-21T17:30:19.688Z,103245.91
2023-01-21T17:32:54.713Z,103260.91
2023-01-21T17:35:25.684Z,103256.44
2023-01-21T17:37:55.852Z,103251.16
2023-01-21T17:40:29.201Z,103244.19
2023-01-21T17:42:58.974Z,103245.06
2023-01-21T17:45:32.364Z,103252.06
2023-01-21T17:48:09.491Z,103241.50
2023-01-21T17:50:46.502Z,103251.16
2023-01-21T17:53:21.687Z,103251.19
2023-01-21T17:55:57.674Z,103244.19
2023-01-21T17:58:45.999Z,103257.38
2023-01-21T18:01:14.605Z,103253.00
2023-01-21T18:03:43.148Z,103243.25
2023-01-21T18:06:19.093Z,103238.84
2023-01-21T18:08:46.946Z,103245.88
2023-01-21T18:11:16.795Z,103255.59
2023-01-21T18:13:44.768Z,103245.91
2023-01-21T18:16:12.664Z,103248.50
2023-01-21T18:18:41.291Z,103246.72
2023-01-21T18:21:20.934Z,103251.09
2023-01-21T18:23:49.677Z,103261.63
2023-01-21T18:26:24.122Z,103257.19
2023-01-21T18:28:51.971Z,103272.16
2023-01-21T18:31:19.914Z,103265.19
2023-01-21T18:33:47.922Z,103273.16
2023-01-21T18:36:15.799Z,103273.13
2023-01-21T18:38:45.374Z,103284.50
2023-01-21T18:41:13.568Z,103274.84
2023-01-21T18:43:41.943Z,103273.13
2023-01-21T18:46:12.793Z,103277.53
2023-01-21T18:48:40.790Z,103279.28
2023-01-21T18:51:09.776Z,103271.31
2023-01-21T18:53:37.804Z,103269.47
2023-01-21T18:56:11.063Z,103273.94
2023-01-21T18:58:38.933Z,103259.91
2023-01-21T19:01:21.417Z,103253.75
2023-01-21T19:03:51.761Z,103259.91
2023-01-21T19:06:19.806Z,103259.00
2023-01-21T19:08:48.684Z,103264.25
2023-01-21T19:11:18.123Z,103257.22
2023-01-21T19:13:46.009Z,103243.91
2023-01-21T19:16:16.852Z,103239.44
2023-01-21T19:18:45.277Z,103239.53
2023-01-21T19:21:13.136Z,103250.94
2023-01-21T19:23:41.353Z,103239.53
2023-01-21T19:26:13.797Z,103244.75
2023-01-21T19:28:43.498Z,103249.97
2023-01-21T19:31:11.370Z,103244.63
2023-01-21T19:33:41.949Z,103245.59
2023-01-21T19:36:15.887Z,103238.53
2023-01-21T19:38:44.583Z,103239.38
2023-01-21T19:41:12.420Z,103228.94
2023-01-21T19:43:41.243Z,103233.25
2023-01-21T19:46:13.162Z,103242.94
2023-01-21T19:48:41.962Z,103238.47
2023-01-21T19:51:10.074Z,103232.31
2023-01-21T19:53:38.046Z,103241.19
2023-01-21T19:56:06.789Z,103235.84
2023-01-21T19:58:35.728Z,103225.28
2023-01-21T20:01:03.758Z,103231.47
2023-01-21T20:03:33.056Z,103234.03
2023-01-21T20:06:03.169Z,103234.03
2023-01-21T20:08:32.114Z,103229.66
2023-01-21T20:10:59.998Z,103235.75
2023-01-21T20:13:31.375Z,103237.47
2023-01-21T20:16:03.721Z,103246.19
2023-01-21T20:18:33.612Z,103232.13
2023-01-21T20:21:01.549Z,103231.25
2023-01-21T20:23:32.721Z,103234.78
2023-01-21T20:26:01.175Z,103241.78
2023-01-21T20:28:37.119Z,103238.34
2023-01-21T20:31:07.187Z,103233.06
2023-01-21T20:33:37.011Z,103233.88
2023-01-21T20:36:07.570Z,103245.34
2023-01-21T20:38:38.360Z,103242.63
2023-01-21T20:41:07.202Z,103234.78
2023-01-21T20:43:35.788Z,103249.69
2023-01-21T20:46:06.966Z,103246.94
2023-01-21T20:48:39.962Z,103252.13
2023-01-21T20:51:08.171Z,103244.28
2023-01-21T20:53:36.296Z,103239.09
2023-01-21T20:56:22.700Z,103256.66
2023-01-21T20:58:50.952Z,103251.28
2023-01-21T21:01:21.380Z,103248.59
2023-01-21T21:03:51.023Z,103230.13
2023-01-21T21:06:21.127Z,103238.09
2023-01-21T21:08:50.054Z,103247.91
2023-01-21T21:11:19.234Z,103252.31
2023-01-21T21:13:50.543Z,103250.53
2023-01-21T21:16:20.998Z,103251.44
2023-01-21T21:18:50.982Z,103250.69
2023-01-21T21:21:21.085Z,103249.69
2023-01-21T21:23:52.158Z,103254.97
2023-01-21T21:26:23.034Z,103260.31
2023-01-21T21:28:52.094Z,103240.81
2023-01-21T21:31:20.138Z,103250.53
2023-01-21T21:33:48.053Z,103252.28
2023-01-21T21:36:19.430Z,103243.44
2023-01-21T21:38:48.970Z,103250.53
2023-01-21T21:41:35.763Z,103248.75
2023-01-21T21:44:03.957Z,103245.25
2023-01-21T21:46:49.870Z,103254.16
2023-01-21T21:49:18.091Z,103261.97
2023-01-21T21:52:00.322Z,103239.16
2023-01-21T21:54:28.556Z,103256.75
2023-01-21T21:56:56.915Z,103254.91
2023-01-21T21:59:24.872Z,103254.06
2023-01-21T22:01:52.865Z,103258.53
2023-01-21T22:04:21.350Z,103260.25
2023-01-21T22:06:50.859Z,103253.38
2023-01-21T22:09:18.868Z,103263.88
2023-01-21T22:11:46.841Z,103249.91
2023-01-21T22:14:15.030Z,103248.03
2023-01-21T22:16:43.334Z,103261.16
2023-01-21T22:19:12.341Z,103249.78
2023-01-21T22:21:40.247Z,103255.94
2023-01-21T22:24:11.147Z,103240.13
2023-01-21T22:26:39.301Z,103239.25
2023-01-21T22:29:07.179Z,103249.78
2023-01-21T22:31:35.765Z,103246.31
2023-01-21T22:34:04.430Z,103246.31
2023-01-21T22:36:34.060Z,103251.56
2023-01-21T22:39:02.279Z,103254.06
2023-01-21T22:41:31.762Z,103259.41
2023-01-21T22:43:59.622Z,103261.16
2023-01-21T22:46:30.059Z,103252.41
2023-01-21T22:48:58.451Z,103261.22
2023-01-21T22:51:26.955Z,103255.13
2023-01-21T22:53:55.224Z,103266.56
2023-01-21T22:56:44.956Z,103248.94
2023-01-21T22:59:14.317Z,103254.34
2023-01-21T23:01:42.740Z,103238.47
2023-01-21T23:04:10.844Z,103242.91
2023-01-21T23:06:38.931Z,103241.09
2023-01-21T23:09:09.516Z,103243.81
2023-01-21T23:11:39.568Z,103243.75
2023-01-21T23:14:09.919Z,103243.72
2023-01-21T23:16:39.698Z,103239.22
2023-01-21T23:19:07.524Z,103231.44
2023-01-21T23:21:37.596Z,103238.41
2023-01-21T23:24:05.812Z,103236.72
2023-01-21T23:26:33.797Z,103240.22
2023-01-21T23:29:01.868Z,103237.56
2023-01-21T23:31:29.972Z,103234.09
2023-01-21T23:34:00.111Z,103235.06
2023-01-21T23:36:27.942Z,103232.41
2023-01-21T23:38:55.936Z,103235.16
2023-01-21T23:41:23.986Z,103227.19
2023-01-21T23:43:51.897Z,103222.81
2023-01-21T23:46:20.696Z,103235.06
2023-01-21T23:48:49.313Z,103221.03
2023-01-21T23:51:19.600Z,103224.44
2023-01-21T23:53:49.078Z,103219.16
2023-01-21T23:56:20.375Z,103216.53
2023-01-21T23:58:51.016Z,103222.47
